Time;durP1;ratioP1;P1;durP2;ratioP2;P2;SDS_P1;SDS_P2;PMS_P1;PMS_P2;Temp;Humidity;BMP_temperature;BMP_pressure;BME280_temperature;BME280_humidity;BME280_pressure;Samples;Min_cycle;Max_cycle;Signal;HPM_P1;HPM_P2
2024/01/24 00:02:06;;;;;;;5.85;5.00;;;;;;;6.97;100.00;100386.41;10235850;28;20638;-72
2024/01/24 00:07:02;;;;;;;6.35;5.57;;;;;;;7.05;100.00;100365.88;10235285;28;20045;-70
2024/01/24 00:11:59;;;;;;;5.72;5.15;;;;;;;7.11;100.00;100338.28;10236020;28;20042;-70
2024/01/24 00:16:55;;;;;;;6.68;6.03;;;;;;;7.19;100.00;100322.38;10230229;28;20053;-70
2024/01/24 00:21:52;;;;;;;7.15;5.80;;;;;;;7.32;100.00;100300.56;10229865;28;20045;-72
2024/01/24 00:26:48;;;;;;;13.43;6.10;;;;;;;7.36;100.00;100298.06;10231539;28;20066;-70
2024/01/24 00:31:47;;;;;;;7.22;6.53;;;;;;;7.45;100.00;100303.56;10235851;28;20049;-70
2024/01/24 00:36:43;;;;;;;9.95;6.13;;;;;;;7.57;100.00;100284.81;10234577;28;20412;-70
2024/01/24 00:41:43;;;;;;;8.23;6.80;;;;;;;7.64;100.00;100279.72;10234414;28;20540;-70
2024/01/24 00:46:40;;;;;;;8.77;7.40;;;;;;;7.73;100.00;100275.16;10234281;28;20424;-70
2024/01/24 00:51:37;;;;;;;10.23;9.18;;;;;;;7.84;100.00;100258.56;10234136;28;20041;-70
2024/01/24 00:56:33;;;;;;;11.27;9.32;;;;;;;7.88;100.00;100284.06;10233764;28;20172;-71
2024/01/24 01:01:30;;;;;;;9.70;8.70;;;;;;;8.01;100.00;100289.44;10221473;28;20509;-71
2024/01/24 01:06:27;;;;;;;11.70;9.80;;;;;;;8.12;100.00;100262.75;10193529;28;20144;-70
2024/01/24 01:11:23;;;;;;;14.32;10.10;;;;;;;8.23;100.00;100264.06;10193243;28;20084;-73
2024/01/24 01:16:19;;;;;;;14.45;9.77;;;;;;;8.31;100.00;100269.88;10187583;28;20046;-70
2024/01/24 01:21:16;;;;;;;11.88;9.43;;;;;;;8.35;100.00;100244.41;10193540;28;20421;-69
2024/01/24 01:26:13;;;;;;;10.23;8.60;;;;;;;8.48;100.00;100231.84;10202244;28;20061;-68
2024/01/24 01:31:09;;;;;;;12.65;8.32;;;;;;;8.56;100.00;100222.91;10231365;28;20050;-69
2024/01/24 01:36:06;;;;;;;10.45;8.02;;;;;;;8.70;100.00;100211.06;10231597;28;20068;-69
2024/01/24 01:41:18;;;;;;;10.68;8.45;;;;;;;8.76;100.00;100188.00;10227598;28;20052;-72
2024/01/24 01:46:25;;;;;;;10.93;8.65;;;;;;;8.83;100.00;100171.97;10231495;28;20048;-70
2024/01/24 01:51:22;;;;;;;10.15;7.20;;;;;;;8.97;100.00;100156.25;10231855;28;20140;-68
2024/01/24 01:56:21;;;;;;;10.45;7.68;;;;;;;9.05;100.00;100169.09;10230984;28;20053;-71
2024/01/24 02:01:19;;;;;;;12.07;6.68;;;;;;;9.15;100.00;100134.44;10226559;28;20140;-71
2024/01/24 02:06:16;;;;;;;8.18;6.65;;;;;;;9.25;100.00;100136.84;10229540;28;20041;-70
2024/01/24 02:11:12;;;;;;;9.82;7.05;;;;;;;9.27;100.00;100121.75;10222604;28;20045;-72
2024/01/24 02:16:13;;;;;;;9.82;6.70;;;;;;;9.39;100.00;100110.16;10230008;28;20049;-69
2024/01/24 02:21:13;;;;;;;7.00;6.30;;;;;;;9.37;100.00;100101.50;10225595;28;20056;-71
2024/01/24 02:26:11;;;;;;;7.65;6.15;;;;;;;9.45;100.00;100100.69;10229202;28;20413;-69
2024/01/24 02:31:07;;;;;;;10.65;7.18;;;;;;;9.42;100.00;100079.53;10221777;28;20068;-69
2024/01/24 02:36:04;;;;;;;7.93;5.97;;;;;;;9.57;100.00;100074.66;10229296;28;20057;-71
2024/01/24 02:41:01;;;;;;;9.45;6.38;;;;;;;9.63;100.00;100081.50;10225168;28;20057;-71
2024/01/24 02:45:57;;;;;;;7.43;5.95;;;;;;;9.65;100.00;100098.38;10229231;28;20570;-71
2024/01/24 02:50:54;;;;;;;7.95;6.55;;;;;;;9.75;100.00;100091.75;10226305;28;20052;-71
2024/01/24 02:55:50;;;;;;;9.65;7.05;;;;;;;9.80;100.00;100084.19;10229355;28;20402;-71
2024/01/24 03:00:47;;;;;;;8.23;7.10;;;;;;;9.79;100.00;100055.28;10225716;28;20045;-71
2024/01/24 03:05:44;;;;;;;7.35;6.63;;;;;;;9.85;100.00;100059.44;10227644;28;20079;-71
2024/01/24 03:10:40;;;;;;;7.40;6.53;;;;;;;9.85;100.00;100025.88;10229363;28;20131;-71
2024/01/24 03:15:36;;;;;;;8.13;6.53;;;;;;;9.86;100.00;100017.34;10228876;28;20579;-73
2024/01/24 03:20:33;;;;;;;8.30;6.43;;;;;;;9.87;100.00;100002.56;10224149;28;20420;-73
2024/01/24 03:25:30;;;;;;;7.43;6.57;;;;;;;9.94;100.00;100001.25;10228621;28;20042;-73
2024/01/24 03:30:26;;;;;;;5.50;4.93;;;;;;;10.02;100.00;99984.00;10221889;28;20045;-72
2024/01/24 03:35:23;;;;;;;4.95;4.45;;;;;;;10.09;100.00;100003.38;10221841;28;20493;-73
2024/01/24 03:40:19;;;;;;;4.18;3.53;;;;;;;10.15;100.00;100013.00;10228878;28;20445;-70
2024/01/24 03:45:16;;;;;;;4.30;3.40;;;;;;;10.17;100.00;100035.31;10228111;28;20060;-70
2024/01/24 03:50:12;;;;;;;4.00;3.20;;;;;;;10.07;100.00;100066.56;10219206;28;20068;-70
2024/01/24 03:55:09;;;;;;;12.77;7.47;;;;;;;9.83;100.00;100048.03;10222868;28;20041;-71
2024/01/24 04:00:06;;;;;;;9.23;8.30;;;;;;;9.84;100.00;100011.41;10227924;28;20053;-71
2024/01/24 04:05:04;;;;;;;11.93;10.65;;;;;;;9.72;100.00;100000.38;10227994;28;20054;-71
2024/01/24 04:10:00;;;;;;;10.00;7.35;;;;;;;9.65;100.00;100005.56;10224897;28;20133;-72
2024/01/24 04:14:57;;;;;;;9.98;7.88;;;;;;;9.37;100.00;100005.22;10229742;28;20111;-71
2024/01/24 04:19:53;;;;;;;13.75;8.77;;;;;;;9.08;100.00;100014.13;10233154;28;20615;-73
2024/01/24 04:24:50;;;;;;;10.40;8.73;;;;;;;9.13;100.00;100087.59;10230833;28;20508;-72
2024/01/24 04:29:47;;;;;;;11.05;9.63;;;;;;;9.01;100.00;100075.41;10229954;28;20048;-71
2024/01/24 04:34:44;;;;;;;9.07;8.15;;;;;;;9.10;100.00;100055.50;10233788;28;20049;-72
2024/01/24 04:39:41;;;;;;;11.25;8.13;;;;;;;9.24;100.00;100061.59;10232263;28;20057;-74
2024/01/24 04:44:37;;;;;;;10.80;9.70;;;;;;;9.39;100.00;100085.59;10223912;28;20056;-72
2024/01/24 04:49:34;;;;;;;11.38;8.75;;;;;;;9.51;100.00;100076.75;10232965;28;20045;-73
2024/01/24 04:54:43;;;;;;;13.38;9.20;;;;;;;9.46;100.00;100091.34;10223772;28;20600;-72
2024/01/24 04:59:41;;;;;;;17.35;9.55;;;;;;;9.40;100.00;100097.31;10227619;28;20052;-74
2024/01/24 05:04:50;;;;;;;16.45;10.90;;;;;;;9.48;100.00;100088.31;10222049;28;20046;-76
2024/01/24 05:09:47;;;;;;;15.07;11.02;;;;;;;9.43;100.00;100104.88;10229528;28;20048;-74
2024/01/24 05:14:43;;;;;;;19.98;13.25;;;;;;;9.37;100.00;100136.97;10221833;28;20046;-73
2024/01/24 05:19:40;;;;;;;19.60;12.32;;;;;;;9.40;100.00;100184.63;10223506;28;20111;-74
2024/01/24 05:24:36;;;;;;;20.35;12.82;;;;;;;9.44;100.00;100213.66;10218026;28;20068;-72
2024/01/24 05:29:33;;;;;;;27.73;13.75;;;;;;;9.30;100.00;100234.06;10219839;28;20053;-76
2024/01/24 05:34:29;;;;;;;18.00;11.25;;;;;;;9.40;100.00;100278.22;10218178;28;20049;-78
2024/01/24 05:39:26;;;;;;;23.73;12.70;;;;;;;9.44;100.00;100287.34;10230104;28;20050;-73
2024/01/24 05:44:23;;;;;;;26.08;12.75;;;;;;;9.34;100.00;100327.81;10228174;28;20053;-79
2024/01/24 05:49:19;;;;;;;27.25;16.23;;;;;;;9.35;100.00;100346.59;10230391;28;20057;-77
2024/01/24 05:54:16;;;;;;;23.48;12.60;;;;;;;9.40;100.00;100373.72;10213844;28;20045;-73
2024/01/24 05:59:12;;;;;;;17.98;13.13;;;;;;;9.26;100.00;100370.31;10234978;28;20761;-74
2024/01/24 06:04:11;;;;;;;22.10;12.57;;;;;;;9.39;100.00;100385.75;10217107;28;20037;-77
2024/01/24 06:09:08;;;;;;;27.80;14.00;;;;;;;9.32;100.00;100418.16;10196859;28;20108;-75
2024/01/24 06:14:04;;;;;;;26.85;13.48;;;;;;;9.35;100.00;100390.25;10193732;28;20067;-76
2024/01/24 06:19:01;;;;;;;21.92;12.60;;;;;;;9.37;100.00;100404.34;10224822;28;20049;-74
2024/01/24 06:23:58;;;;;;;25.35;10.63;;;;;;;9.47;100.00;100458.66;10201573;28;20052;-77
2024/01/24 06:28:54;;;;;;;14.88;9.55;;;;;;;9.50;100.00;100473.59;10183545;28;20049;-78
2024/01/24 06:33:50;;;;;;;26.38;11.13;;;;;;;9.36;100.00;100446.41;10193357;28;20053;-74
2024/01/24 06:38:47;;;;;;;21.92;11.07;;;;;;;9.19;100.00;100468.16;10204321;28;20058;-74
2024/01/24 06:43:45;;;;;;;30.10;12.55;;;;;;;9.17;100.00;100443.16;10179220;28;20444;-75
2024/01/24 06:48:41;;;;;;;20.77;11.50;;;;;;;8.88;100.00;100458.06;10188619;28;20042;-75
2024/01/24 06:53:38;;;;;;;28.60;13.13;;;;;;;8.80;100.00;100450.66;10186219;28;20069;-74
2024/01/24 06:58:37;;;;;;;16.95;11.60;;;;;;;8.76;100.00;100446.94;10190598;28;20068;-75
2024/01/24 07:03:35;;;;;;;18.45;11.30;;;;;;;8.85;100.00;100448.59;10181467;28;20042;-75
2024/01/24 07:08:32;;;;;;;22.38;11.10;;;;;;;8.92;100.00;100441.91;10181729;28;20042;-75
2024/01/24 07:13:28;;;;;;;21.23;10.38;;;;;;;9.08;100.00;100461.41;10188333;28;20104;-76
2024/01/24 07:18:25;;;;;;;21.05;10.77;;;;;;;8.88;100.00;100451.81;10179700;28;20536;-77
2024/01/24 07:23:21;;;;;;;24.52;9.73;;;;;;;8.89;100.00;100465.16;10201037;28;20086;-75
2024/01/24 07:28:18;;;;;;;25.77;11.23;;;;;;;8.83;100.00;100499.09;10184965;28;20042;-72
2024/01/24 07:33:14;;;;;;;32.75;15.82;;;;;;;8.69;100.00;100476.56;10188346;28;20100;-77
2024/01/24 07:38:11;;;;;;;25.17;13.55;;;;;;;8.47;100.00;100480.91;10186303;28;20573;-76
2024/01/24 07:43:08;;;;;;;17.88;12.13;;;;;;;8.44;100.00;100481.50;10182428;28;20046;-78
2024/01/24 07:48:05;;;;;;;28.70;14.00;;;;;;;8.48;100.00;100471.63;10190092;28;20516;-72
2024/01/24 07:53:02;;;;;;;29.92;13.95;;;;;;;8.49;100.00;100533.16;10200106;28;20133;-73
2024/01/24 07:57:59;;;;;;;26.65;12.82;;;;;;;8.64;100.00;100511.00;10189704;28;20571;-75
2024/01/24 08:02:58;;;;;;;31.38;13.77;;;;;;;8.57;100.00;100507.91;10183251;28;20386;-76
2024/01/24 08:07:55;;;;;;;22.98;11.63;;;;;;;8.70;100.00;100521.78;10201517;28;20065;-76
2024/01/24 08:12:51;;;;;;;26.13;11.65;;;;;;;8.83;100.00;100526.38;10225371;28;20076;-73
2024/01/24 08:17:48;;;;;;;39.17;10.88;;;;;;;8.91;100.00;100528.38;10216027;28;20116;-74
2024/01/24 08:22:45;;;;;;;23.20;8.90;;;;;;;9.05;100.00;100550.91;10204138;28;20061;-73
2024/01/24 08:27:41;;;;;;;26.30;8.50;;;;;;;9.01;100.00;100582.63;10224825;28;20456;-73
2024/01/24 08:32:40;;;;;;;32.28;8.70;;;;;;;9.11;100.00;100576.13;10241720;28;20633;-73
2024/01/24 08:37:37;;;;;;;20.60;7.88;;;;;;;9.13;100.00;100567.63;10242960;28;20133;-71
2024/01/24 08:42:34;;;;;;;24.73;8.73;;;;;;;8.94;100.00;100576.81;10243304;28;20423;-74
2024/01/24 08:47:30;;;;;;;33.20;9.13;;;;;;;9.06;100.00;100574.31;10236148;28;20099;-72
2024/01/24 08:52:27;;;;;;;25.92;9.38;;;;;;;8.96;100.00;100563.69;10230632;28;20722;-72
2024/01/24 08:57:24;;;;;;;31.42;9.98;;;;;;;8.94;100.00;100574.09;10219020;28;20041;-72
2024/01/24 09:02:21;;;;;;;30.85;8.25;;;;;;;9.14;100.00;100588.31;10186330;28;20308;-73
2024/01/24 09:07:19;;;;;;;23.17;9.32;;;;;;;8.99;100.00;100628.50;10196686;28;20492;-72
2024/01/24 09:12:16;;;;;;;31.15;9.25;;;;;;;9.00;100.00;100607.47;10191100;28;20536;-75
2024/01/24 09:17:13;;;;;;;34.25;9.07;;;;;;;9.01;100.00;100642.63;10192240;28;20049;-74
2024/01/24 09:22:10;;;;;;;33.33;8.70;;;;;;;9.02;100.00;100633.31;10185677;28;20537;-76
2024/01/24 09:27:07;;;;;;;24.52;7.57;;;;;;;9.11;100.00;100591.69;10207739;28;20132;-74
2024/01/24 09:32:03;;;;;;;28.10;8.10;;;;;;;9.05;100.00;100627.25;10225150;28;20045;-73
2024/01/24 09:37:01;;;;;;;23.75;7.55;;;;;;;9.08;100.00;100635.94;10230336;28;20042;-76
2024/01/24 09:41:57;;;;;;;28.23;8.63;;;;;;;9.16;100.00;100673.38;10236360;28;20114;-74
2024/01/24 09:46:55;;;;;;;15.85;8.93;;;;;;;9.09;100.00;100659.38;10232325;28;20079;-73
2024/01/24 09:51:53;;;;;;;25.20;8.57;;;;;;;9.02;100.00;100633.31;10233223;28;20049;-74
2024/01/24 09:56:51;;;;;;;25.55;9.18;;;;;;;9.09;100.00;100643.00;10227578;28;20045;-75
2024/01/24 10:01:49;;;;;;;27.60;8.77;;;;;;;9.02;100.00;100665.25;10215944;28;20477;-75
2024/01/24 10:06:46;;;;;;;23.83;8.43;;;;;;;8.95;100.00;100654.75;10196225;28;20128;-74
2024/01/24 10:11:43;;;;;;;36.05;9.73;;;;;;;9.02;100.00;100676.97;10216313;28;20128;-73
2024/01/24 10:16:40;;;;;;;32.03;8.82;;;;;;;8.99;100.00;100649.50;10219338;28;20068;-74
2024/01/24 10:21:40;;;;;;;35.97;9.32;;;;;;;9.02;100.00;100663.31;10228222;28;20041;-74
2024/01/24 10:26:37;;;;;;;18.63;7.72;;;;;;;9.08;100.00;100663.22;10221301;28;20049;-73
2024/01/24 10:31:33;;;;;;;24.80;8.38;;;;;;;8.99;100.00;100654.97;10221231;28;20116;-75
2024/01/24 10:36:32;;;;;;;31.90;10.77;;;;;;;8.68;100.00;100668.47;10214769;28;20045;-75
2024/01/24 10:41:32;;;;;;;26.35;9.65;;;;;;;8.39;100.00;100713.19;10221954;28;20037;-74
2024/01/24 10:46:29;;;;;;;24.23;11.07;;;;;;;8.51;100.00;100705.34;10210906;28;20591;-73
2024/01/24 10:51:27;;;;;;;31.98;11.52;;;;;;;8.37;100.00;100712.69;10192103;28;20401;-74
2024/01/24 10:56:24;;;;;;;23.48;11.30;;;;;;;8.27;100.00;100705.53;10185503;28;20049;-72
2024/01/24 11:01:21;;;;;;;25.88;12.50;;;;;;;8.14;100.00;100698.16;10199387;28;20374;-73
2024/01/24 11:06:18;;;;;;;24.92;11.43;;;;;;;8.13;100.00;100749.09;10224390;28;20540;-72
2024/01/24 11:11:20;;;;;;;24.60;12.95;;;;;;;7.96;100.00;100722.44;10228451;28;20046;-72
2024/01/24 11:16:45;;;;;;;27.63;14.07;;;;;;;8.03;100.00;100719.34;10216729;28;20046;-73
2024/01/24 11:21:41;;;;;;;24.42;14.15;;;;;;;7.89;100.00;100726.66;10180080;28;20479;-72
2024/01/24 11:26:38;;;;;;;29.15;14.73;;;;;;;7.73;100.00;100756.88;10210395;28;20062;-72
2024/01/24 11:31:39;;;;;;;36.15;15.52;;;;;;;7.64;100.00;100709.66;10205896;28;20041;-74
2024/01/24 11:36:47;;;;;;;28.42;15.23;;;;;;;7.68;100.00;100716.13;10220553;28;20046;-73
2024/01/24 11:41:44;;;;;;;27.20;15.90;;;;;;;7.56;100.00;100765.56;10192564;28;20057;-73
2024/01/24 11:46:41;;;;;;;28.98;16.88;;;;;;;7.45;100.00;100760.56;10193329;28;20045;-74
2024/01/24 11:51:38;;;;;;;36.25;17.33;;;;;;;7.36;100.00;100746.84;10198702;28;20038;-74
2024/01/24 11:56:36;;;;;;;25.38;15.35;;;;;;;7.29;100.00;100736.34;10198522;28;20649;-75
2024/01/24 12:01:32;;;;;;;35.65;15.88;;;;;;;7.15;100.00;100730.84;10213081;28;20301;-73
2024/01/24 12:06:31;;;;;;;26.02;14.38;;;;;;;7.11;100.00;100708.03;10220181;28;20095;-74
2024/01/24 12:11:28;;;;;;;31.80;15.13;;;;;;;7.07;100.00;100701.56;10186837;28;20038;-73
2024/01/24 12:16:25;;;;;;;36.13;16.88;;;;;;;7.13;100.00;100711.28;10200552;28;20512;-73
2024/01/24 12:21:22;;;;;;;30.17;15.10;;;;;;;7.27;100.00;100760.31;10198701;28;20488;-72
2024/01/24 12:26:24;;;;;;;31.55;16.60;;;;;;;7.28;100.00;100772.78;10233309;28;20095;-73
2024/01/24 12:31:21;;;;;;;31.38;16.65;;;;;;;7.24;100.00;100765.50;10242756;28;20501;-73
2024/01/24 12:36:18;;;;;;;33.58;14.30;;;;;;;7.34;100.00;100803.47;10231082;28;20419;-73
2024/01/24 12:41:15;;;;;;;37.65;14.40;;;;;;;7.48;100.00;100774.41;10230033;28;20052;-72
2024/01/24 12:46:12;;;;;;;27.50;14.65;;;;;;;7.83;100.00;100817.69;10219202;28;20516;-73
2024/01/24 12:51:08;;;;;;;29.50;11.48;;;;;;;7.86;100.00;100827.97;10204546;28;20148;-74
2024/01/24 12:56:05;;;;;;;34.95;9.40;;;;;;;8.12;100.00;100845.53;10236733;28;20064;-72
2024/01/24 13:01:02;;;;;;;29.60;11.95;;;;;;;8.01;100.00;100849.53;10232274;28;20047;-72
2024/01/24 13:05:58;;;;;;;31.23;10.27;;;;;;;8.18;100.00;100860.66;10229156;28;20240;-72
2024/01/24 13:10:55;;;;;;;37.15;10.63;;;;;;;8.20;100.00;100884.88;10227858;28;20124;-72
2024/01/24 13:15:53;;;;;;;40.20;9.88;;;;;;;8.31;100.00;100885.50;10225303;28;20041;-73
2024/01/24 13:20:50;;;;;;;39.28;10.77;;;;;;;8.25;100.00;100924.84;10226751;28;20080;-74
2024/01/24 13:25:47;;;;;;;35.90;10.93;;;;;;;8.27;100.00;100911.75;10216873;28;20041;-72
2024/01/24 13:30:44;;;;;;;33.75;10.65;;;;;;;8.27;100.00;100928.09;10236809;28;20056;-72
2024/01/24 13:35:40;;;;;;;40.78;12.02;;;;;;;8.26;100.00;100934.63;10233847;28;20128;-74
2024/01/24 13:40:38;;;;;;;35.25;12.45;;;;;;;8.18;100.00;100936.94;10229952;28;20413;-73
2024/01/24 13:45:34;;;;;;;37.58;11.70;;;;;;;8.18;100.00;100964.16;10221139;28;20048;-72
2024/01/24 13:50:37;;;;;;;20.55;9.60;;;;;;;8.25;100.00;100968.44;10227395;28;20420;-72
2024/01/24 13:55:34;;;;;;;25.33;11.10;;;;;;;8.35;100.00;100987.34;10190227;28;20048;-73
2024/01/24 14:00:31;;;;;;;36.47;10.55;;;;;;;8.31;100.00;101008.09;10188465;28;20564;-73
2024/01/24 14:05:27;;;;;;;38.25;10.98;;;;;;;8.33;100.00;100997.72;10185402;28;20056;-73
2024/01/24 14:10:24;;;;;;;38.58;11.07;;;;;;;8.36;100.00;101024.41;10199803;28;20110;-72
2024/01/24 14:15:21;;;;;;;44.30;13.25;;;;;;;8.33;100.00;101025.81;10185722;28;20049;-73
2024/01/24 14:20:30;;;;;;;33.58;11.93;;;;;;;8.32;100.00;101023.34;10192001;28;20460;-73
2024/01/24 14:25:26;;;;;;;37.72;11.88;;;;;;;8.34;100.00;101042.94;10190529;28;20049;-73
2024/01/24 14:30:24;;;;;;;47.63;13.82;;;;;;;8.28;100.00;101044.13;10187068;28;20049;-72
2024/01/24 14:35:22;;;;;;;45.40;12.43;;;;;;;8.31;100.00;101066.16;10184113;28;20082;-73
2024/01/24 14:40:19;;;;;;;33.20;10.88;;;;;;;8.37;100.00;101088.66;10186903;28;20152;-72
2024/01/24 14:45:16;;;;;;;35.78;11.60;;;;;;;8.41;100.00;101087.00;10188726;28;20406;-71
2024/01/24 14:50:13;;;;;;;40.40;11.65;;;;;;;8.46;100.00;101121.56;10183301;28;20074;-72
2024/01/24 14:55:09;;;;;;;45.72;11.20;;;;;;;8.42;100.00;101115.88;10234376;28;20059;-74
2024/01/24 15:00:10;;;;;;;37.22;12.48;;;;;;;8.40;100.00;101127.09;10233375;28;20087;-71
2024/01/24 15:05:10;;;;;;;32.05;11.63;;;;;;;8.39;100.00;101138.22;10189197;28;20039;-73
2024/01/24 15:10:08;;;;;;;55.88;13.68;;;;;;;8.39;100.00;101135.50;10192982;28;20140;-72
2024/01/24 15:15:05;;;;;;;42.55;11.27;;;;;;;8.38;100.00;101159.22;10192537;28;20511;-73
2024/01/24 15:20:03;;;;;;;37.03;11.30;;;;;;;8.35;100.00;101186.22;10188597;28;20119;-72
2024/01/24 15:25:03;;;;;;;30.58;11.05;;;;;;;8.32;100.00;101184.09;10233991;28;20917;-73
2024/01/24 15:30:00;;;;;;;47.92;11.07;;;;;;;8.26;100.00;101183.34;10227217;28;20196;-73
2024/01/24 15:34:59;;;;;;;37.15;11.93;;;;;;;8.30;100.00;101189.03;10231115;28;20578;-75
2024/01/24 15:39:56;;;;;;;46.40;11.25;;;;;;;8.19;100.00;101208.22;10224849;28;20103;-72
2024/01/24 15:44:53;;;;;;;41.72;11.55;;;;;;;8.13;100.00;101222.19;10216490;28;20045;-73
2024/01/24 15:49:49;;;;;;;33.67;13.15;;;;;;;7.81;100.00;101237.19;10190101;28;20074;-74
2024/01/24 15:54:46;;;;;;;43.55;14.20;;;;;;;7.88;100.00;101258.66;10181094;28;20048;-75
2024/01/24 15:59:43;;;;;;;37.30;13.30;;;;;;;7.93;100.00;101220.47;10223006;28;20071;-74
2024/01/24 16:04:40;;;;;;;51.15;14.05;;;;;;;7.97;100.00;101229.69;10218518;28;20753;-72
2024/01/24 16:09:38;;;;;;;36.20;11.45;;;;;;;8.07;100.00;101250.56;10222112;28;20042;-72
2024/01/24 16:14:35;;;;;;;42.10;12.27;;;;;;;8.04;100.00;101251.97;10238414;28;20049;-72
2024/01/24 16:19:31;;;;;;;34.45;10.43;;;;;;;8.06;100.00;101266.09;10235041;28;20474;-71
2024/01/24 16:24:28;;;;;;;31.65;9.55;;;;;;;8.12;100.00;101275.84;10237163;28;20463;-72
2024/01/24 16:29:25;;;;;;;38.53;11.55;;;;;;;8.11;100.00;101285.09;10211379;28;20049;-75
2024/01/24 16:34:21;;;;;;;46.42;12.75;;;;;;;8.11;100.00;101317.78;10200256;28;20120;-72
2024/01/24 16:39:18;;;;;;;39.88;10.88;;;;;;;8.07;100.00;101297.66;10185554;28;20054;-74
2024/01/24 16:44:18;;;;;;;34.00;10.90;;;;;;;8.13;100.00;101326.50;10198646;28;20065;-77
2024/01/24 16:49:15;;;;;;;28.58;10.63;;;;;;;8.11;100.00;101336.88;10194627;28;20054;-76
2024/01/24 16:54:12;;;;;;;33.22;11.27;;;;;;;8.13;100.00;101345.56;10200277;28;20034;-75
2024/01/24 16:59:08;;;;;;;34.85;11.30;;;;;;;8.14;100.00;101358.06;10203094;28;20851;-75
2024/01/24 17:04:06;;;;;;;38.70;11.50;;;;;;;8.10;100.00;101365.22;10191232;28;20080;-74
2024/01/24 17:09:03;;;;;;;30.05;10.43;;;;;;;8.09;100.00;101368.22;10225932;28;20627;-75
2024/01/24 17:13:59;;;;;;;41.63;12.25;;;;;;;8.07;100.00;101379.38;10225413;28;20047;-74
2024/01/24 17:18:56;;;;;;;28.13;10.07;;;;;;;8.05;100.00;101408.81;10204063;28;20373;-75
2024/01/24 17:23:52;;;;;;;36.38;10.00;;;;;;;8.05;100.00;101444.22;10188414;28;20049;-75
2024/01/24 17:28:49;;;;;;;38.97;12.32;;;;;;;7.99;100.00;101401.78;10202254;28;20050;-75
2024/01/24 17:33:46;;;;;;;31.80;10.57;;;;;;;7.99;100.00;101437.19;10199386;28;20128;-75
2024/01/24 17:38:43;;;;;;;41.50;11.93;;;;;;;7.95;100.00;101466.06;10200228;28;20064;-75
2024/01/24 17:43:40;;;;;;;49.22;11.63;;;;;;;8.01;100.00;101432.28;10194274;28;20037;-76
2024/01/24 17:48:36;;;;;;;41.85;11.60;;;;;;;8.00;100.00;101436.09;10192133;28;20548;-73
2024/01/24 17:53:33;;;;;;;43.97;12.85;;;;;;;7.98;100.00;101438.28;10199083;28;20091;-74
2024/01/24 17:58:32;;;;;;;25.23;9.63;;;;;;;8.04;100.00;101448.03;10191494;28;20037;-76
2024/01/24 18:03:29;;;;;;;39.35;11.35;;;;;;;8.02;100.00;101453.75;10184055;28;20046;-76
2024/01/24 18:08:26;;;;;;;28.02;9.50;;;;;;;7.99;100.00;101499.81;10193374;28;20128;-73
2024/01/24 18:13:23;;;;;;;37.13;10.02;;;;;;;7.98;100.00;101487.28;10193211;28;20448;-74
2024/01/24 18:18:20;;;;;;;39.03;12.25;;;;;;;7.95;100.00;101504.19;10188415;28;20116;-74
2024/01/24 18:23:16;;;;;;;28.30;9.82;;;;;;;7.91;100.00;101497.69;10217330;28;20049;-75
2024/01/24 18:28:13;;;;;;;33.90;11.57;;;;;;;7.93;100.00;101498.22;10237926;28;20053;-72
2024/01/24 18:33:13;;;;;;;33.15;10.98;;;;;;;7.83;100.00;101501.00;10231186;28;20041;-75
2024/01/24 18:38:09;;;;;;;36.00;11.30;;;;;;;7.80;100.00;101503.19;10229942;28;20045;-74
2024/01/24 18:43:06;;;;;;;49.88;13.73;;;;;;;7.75;100.00;101505.94;10203883;28;20685;-75
2024/01/24 18:48:03;;;;;;;31.60;10.57;;;;;;;7.74;100.00;101509.75;10201240;28;20103;-74
2024/01/24 18:52:59;;;;;;;31.55;11.25;;;;;;;7.71;100.00;101542.16;10186686;28;20068;-74
2024/01/24 18:57:56;;;;;;;37.90;11.75;;;;;;;7.65;100.00;101544.06;10192850;28;20042;-74
2024/01/24 19:02:53;;;;;;;37.95;11.68;;;;;;;7.62;100.00;101555.53;10210934;28;20091;-76
2024/01/24 19:07:51;;;;;;;41.60;13.13;;;;;;;7.54;100.00;101569.69;10239038;28;20037;-75
2024/01/24 19:12:47;;;;;;;37.15;12.23;;;;;;;7.58;100.00;101576.22;10230881;28;20067;-73
2024/01/24 19:17:45;;;;;;;28.15;10.18;;;;;;;7.56;100.00;101581.13;10203318;28;20045;-72
2024/01/24 19:22:42;;;;;;;38.63;10.85;;;;;;;7.57;100.00;101585.50;10179941;28;20100;-72
2024/01/24 19:27:40;;;;;;;26.55;9.35;;;;;;;7.56;100.00;101590.09;10184086;28;20045;-72
2024/01/24 19:32:37;;;;;;;42.28;10.65;;;;;;;7.55;100.00;101609.44;10197507;28;20398;-72
2024/01/24 19:37:34;;;;;;;29.00;9.95;;;;;;;7.55;100.00;101598.56;10182505;28;20125;-73
2024/01/24 19:42:30;;;;;;;37.25;12.55;;;;;;;7.50;100.00;101606.72;10182906;28;20042;-72
2024/01/24 19:47:32;;;;;;;27.23;10.23;;;;;;;7.48;100.00;101619.78;10185026;28;20050;-73
2024/01/24 19:52:29;;;;;;;34.38;10.82;;;;;;;7.44;100.00;101613.25;10188481;28;20046;-73
2024/01/24 19:57:26;;;;;;;47.65;11.68;;;;;;;7.44;100.00;101637.75;10194145;28;20501;-72
2024/01/24 20:02:23;;;;;;;36.45;11.75;;;;;;;7.42;100.00;101615.44;10189710;28;20522;-74
2024/01/24 20:07:20;;;;;;;46.67;10.32;;;;;;;7.45;100.00;101663.84;10194478;28;20636;-72
2024/01/24 20:12:17;;;;;;;37.63;10.73;;;;;;;7.46;100.00;101638.31;10188670;28;20046;-73
2024/01/24 20:17:13;;;;;;;46.35;12.30;;;;;;;7.44;100.00;101635.03;10185351;28;20137;-74
2024/01/24 20:22:11;;;;;;;30.83;10.13;;;;;;;7.46;100.00;101638.31;10201540;28;20115;-72
2024/01/24 20:27:08;;;;;;;30.73;10.20;;;;;;;7.46;100.00;101649.19;10227013;28;20053;-73
2024/01/24 20:32:04;;;;;;;24.23;9.80;;;;;;;7.47;100.00;101656.25;10219520;28;20120;-73
2024/01/24 20:37:01;;;;;;;35.30;10.45;;;;;;;7.43;100.00;101660.63;10208064;28;20463;-74
2024/01/24 20:41:58;;;;;;;41.08;11.45;;;;;;;7.44;100.00;101678.56;10233839;28;20071;-73
2024/01/24 20:46:58;;;;;;;30.30;9.98;;;;;;;7.44;100.00;101684.00;10229905;28;20684;-73
2024/01/24 20:51:55;;;;;;;27.48;10.50;;;;;;;7.40;100.00;101685.63;10218848;28;20054;-75
2024/01/24 20:56:51;;;;;;;25.23;9.73;;;;;;;7.35;100.00;101664.69;10191900;28;20045;-75
2024/01/24 21:01:48;;;;;;;38.88;11.98;;;;;;;7.32;100.00;101693.25;10205297;28;20537;-73
2024/01/24 21:06:45;;;;;;;43.22;11.90;;;;;;;7.31;100.00;101669.88;10204436;28;20046;-72
2024/01/24 21:11:44;;;;;;;36.50;11.70;;;;;;;7.31;100.00;101686.19;10213778;28;20041;-73
2024/01/24 21:16:41;;;;;;;48.25;11.15;;;;;;;7.26;100.00;101683.44;10234498;28;20115;-71
2024/01/24 21:21:38;;;;;;;34.60;12.02;;;;;;;7.24;100.00;101688.38;10211667;28;20045;-73
2024/01/24 21:26:34;;;;;;;40.92;11.32;;;;;;;7.18;100.00;101684.00;10191773;28;20033;-72
2024/01/24 21:31:31;;;;;;;27.08;9.73;;;;;;;7.17;100.00;101687.81;10188101;28;20793;-70
2024/01/24 21:36:27;;;;;;;30.48;11.63;;;;;;;7.05;100.00;101709.81;10196050;28;20042;-73
2024/01/24 21:41:24;;;;;;;29.08;10.35;;;;;;;6.90;100.00;101702.47;10201600;28;20045;-74
2024/01/24 21:46:20;;;;;;;33.80;10.40;;;;;;;6.90;100.00;101707.91;10217761;28;20509;-72
2024/01/24 21:51:17;;;;;;;39.55;12.02;;;;;;;6.79;100.00;101722.56;10228883;28;20123;-71
2024/01/24 21:56:13;;;;;;;32.60;11.48;;;;;;;6.75;100.00;101721.44;10223443;28;20049;-71
2024/01/24 22:01:11;;;;;;;25.65;11.15;;;;;;;6.67;100.00;101724.69;10228103;28;20041;-73
2024/01/24 22:06:08;;;;;;;29.60;10.55;;;;;;;6.59;100.00;101707.00;10225329;28;20052;-72
2024/01/24 22:11:05;;;;;;;35.22;11.43;;;;;;;6.52;100.00;101718.13;10233627;28;20140;-71
2024/01/24 22:16:01;;;;;;;35.63;11.32;;;;;;;6.64;100.00;101717.09;10226420;28;20891;-70
2024/01/24 22:20:58;;;;;;;35.53;9.82;;;;;;;6.55;100.00;101705.09;10229514;28;20049;-69